Time;durP1;ratioP1;P1;durP2;ratioP2;P2;SDS_P1;SDS_P2;PMS_P1;PMS_P2;Temp;Humidity;BMP_temperature;BMP_pressure;BME280_temperature;BME280_humidity;BME280_pressure;Samples;Min_cycle;Max_cycle;Signal;HPM_P1;HPM_P2
2023/12/06 00:00:18;;;;;;;12.30;11.20;;;;;;;4.23;77.01;94551.19;5097293;28;20207;-68
2023/12/06 00:02:48;;;;;;;12.27;11.07;;;;;;;4.21;77.18;94550.69;5078665;28;20207;-67
2023/12/06 00:05:15;;;;;;;11.43;10.40;;;;;;;4.21;77.12;94551.53;5096275;28;20192;-68
2023/12/06 00:07:42;;;;;;;11.80;10.70;;;;;;;4.18;77.39;94552.16;5096409;28;20196;-67
2023/12/06 00:10:12;;;;;;;11.90;10.80;;;;;;;4.16;77.64;94556.34;5096727;28;20308;-67
2023/12/06 00:12:39;;;;;;;11.93;10.82;;;;;;;4.16;77.37;94551.66;5078577;28;20208;-67
2023/12/06 00:15:08;;;;;;;12.10;11.00;;;;;;;4.15;77.19;94555.53;5094326;28;20229;-67
2023/12/06 00:17:35;;;;;;;12.02;10.95;;;;;;;4.16;77.33;94559.88;5078842;28;20200;-67
2023/12/06 00:20:04;;;;;;;12.88;11.63;;;;;;;4.18;77.57;94554.88;5078767;28;20245;-67
2023/12/06 00:22:34;;;;;;;12.18;11.05;;;;;;;4.17;77.45;94553.25;5095785;28;20191;-67
2023/12/06 00:25:01;;;;;;;12.20;11.20;;;;;;;4.18;77.88;94545.91;5095802;28;20512;-67
2023/12/06 00:27:29;;;;;;;12.13;11.02;;;;;;;4.18;77.68;94543.97;5095789;28;20188;-67
2023/12/06 00:29:56;;;;;;;12.10;11.00;;;;;;;4.16;77.74;94537.22;5078057;28;20204;-67
2023/12/06 00:32:23;;;;;;;11.73;10.52;;;;;;;4.16;77.78;94534.50;5096335;28;20184;-67
2023/12/06 00:34:51;;;;;;;11.10;10.10;;;;;;;4.19;77.82;94539.31;5078204;28;20237;-68
2023/12/06 00:37:19;;;;;;;11.43;10.43;;;;;;;4.16;77.65;94531.78;5095706;28;20196;-67
2023/12/06 00:39:46;;;;;;;11.07;10.07;;;;;;;4.14;77.88;94532.09;5078059;28;20193;-67
2023/12/06 00:42:15;;;;;;;11.27;10.18;;;;;;;4.14;78.18;94532.09;5095800;28;20265;-67
2023/12/06 00:44:43;;;;;;;11.10;10.10;;;;;;;4.14;78.25;94532.09;5078497;28;20196;-67
2023/12/06 00:47:11;;;;;;;11.38;10.32;;;;;;;4.10;78.28;94531.94;5095741;28;20229;-67
2023/12/06 00:49:39;;;;;;;10.43;9.43;;;;;;;4.11;77.74;94532.75;5095651;28;20181;-67
2023/12/06 00:52:06;;;;;;;9.80;8.90;;;;;;;4.11;78.08;94530.03;5095371;28;20181;-67
2023/12/06 00:54:34;;;;;;;10.93;9.93;;;;;;;4.10;78.23;94528.41;5077796;28;20228;-67
2023/12/06 00:57:01;;;;;;;10.68;9.77;;;;;;;4.13;77.96;94518.75;5095909;28;20241;-67
2023/12/06 00:59:29;;;;;;;10.13;9.23;;;;;;;4.10;78.03;94515.56;5077687;28;20222;-67
2023/12/06 01:01:56;;;;;;;10.35;9.45;;;;;;;4.09;77.91;94518.63;5095222;28;20196;-67
2023/12/06 01:04:23;;;;;;;10.50;9.60;;;;;;;4.07;78.26;94518.16;5078016;28;20189;-67
2023/12/06 01:06:50;;;;;;;10.15;9.25;;;;;;;4.06;78.29;94513.81;5077926;28;20184;-67
2023/12/06 01:09:17;;;;;;;10.35;9.38;;;;;;;4.05;78.46;94512.22;5078491;28;20196;-68
2023/12/06 01:11:46;;;;;;;10.25;9.35;;;;;;;4.05;78.14;94518.47;5077828;28;20208;-67
2023/12/06 01:14:13;;;;;;;10.07;9.10;;;;;;;4.05;78.29;94513.00;5095009;28;20332;-67
2023/12/06 01:16:41;;;;;;;10.82;9.82;;;;;;;4.03;78.10;94506.25;5095670;28;20188;-67
2023/12/06 01:19:08;;;;;;;10.60;9.65;;;;;;;4.01;78.21;94503.88;5078112;28;20196;-67
2023/12/06 01:21:35;;;;;;;10.85;9.77;;;;;;;4.02;78.15;94502.72;5078349;28;20202;-67
2023/12/06 01:24:02;;;;;;;11.38;10.38;;;;;;;4.01;78.38;94498.41;5077717;28;20231;-67
2023/12/06 01:26:29;;;;;;;10.88;9.95;;;;;;;3.97;78.50;94494.72;5095246;28;20608;-67
2023/12/06 01:28:58;;;;;;;10.65;9.75;;;;;;;3.96;78.26;94476.78;5095038;28;20200;-68
2023/12/06 01:31:25;;;;;;;11.07;10.07;;;;;;;3.97;78.39;94478.38;5095521;28;20211;-68
2023/12/06 01:33:52;;;;;;;11.40;10.40;;;;;;;3.96;78.65;94479.50;5095494;28;20192;-68
2023/12/06 01:36:19;;;;;;;10.65;9.75;;;;;;;3.92;78.22;94488.63;5095076;28;20208;-68
2023/12/06 01:38:48;;;;;;;11.52;10.52;;;;;;;3.90;78.32;94477.25;5095010;28;20250;-67
2023/12/06 01:41:16;;;;;;;10.77;9.98;;;;;;;3.90;78.76;94480.78;5077110;28;20196;-67
2023/12/06 01:43:44;;;;;;;11.50;10.50;;;;;;;3.92;78.70;94475.00;5076846;28;20544;-67
2023/12/06 01:46:15;;;;;;;11.63;10.63;;;;;;;3.90;79.02;94469.06;5094928;28;20237;-67
2023/12/06 01:48:43;;;;;;;12.30;11.30;;;;;;;3.86;78.31;94468.94;5097491;28;20246;-68
2023/12/06 01:51:11;;;;;;;11.98;10.98;;;;;;;3.85;78.74;94470.06;5099056;28;20224;-68
2023/12/06 01:53:41;;;;;;;12.68;11.50;;;;;;;3.85;78.75;94470.06;5098970;28;20200;-67
2023/12/06 01:56:09;;;;;;;11.68;10.60;;;;;;;3.85;78.93;94459.94;5081569;28;20216;-68
2023/12/06 01:58:38;;;;;;;11.23;10.23;;;;;;;3.89;78.78;94460.09;5098662;28;20200;-68
2023/12/06 02:01:05;;;;;;;11.63;10.63;;;;;;;3.86;78.70;94456.09;5098511;28;20228;-68
2023/12/06 02:03:35;;;;;;;11.02;10.02;;;;;;;3.85;78.48;94450.97;5080763;28;20204;-67
2023/12/06 02:06:03;;;;;;;11.07;10.15;;;;;;;3.83;78.52;94445.03;5081822;28;20208;-67
2023/12/06 02:08:31;;;;;;;10.77;9.88;;;;;;;3.84;78.65;94441.16;5098507;28;20596;-68
2023/12/06 02:10:58;;;;;;;10.48;9.57;;;;;;;3.85;78.89;94440.84;5098802;28;20216;-67
2023/12/06 02:13:25;;;;;;;12.27;11.07;;;;;;;3.86;78.67;94447.91;5080780;28;20235;-67
2023/12/06 02:15:52;;;;;;;10.93;9.93;;;;;;;3.87;78.80;94443.25;5096631;28;20232;-67
2023/12/06 02:18:21;;;;;;;10.90;9.80;;;;;;;3.85;78.92;94440.06;5098340;28;20242;-68
2023/12/06 02:20:50;;;;;;;11.98;10.88;;;;;;;3.85;79.06;94437.31;5098243;28;20199;-68
2023/12/06 02:23:17;;;;;;;10.60;9.70;;;;;;;3.89;78.70;94442.94;5098464;28;20212;-68
2023/12/06 02:25:48;;;;;;;11.40;10.38;;;;;;;3.91;78.85;94440.66;5098530;28;20184;-68
2023/12/06 02:28:15;;;;;;;10.73;9.75;;;;;;;3.93;78.92;94432.97;5080497;28;20232;-67
2023/12/06 02:30:42;;;;;;;10.30;9.40;;;;;;;3.95;79.18;94438.88;5098650;28;20299;-68
2023/12/06 02:33:09;;;;;;;8.68;7.88;;;;;;;3.98;79.09;94432.78;5098511;28;20212;-68
2023/12/06 02:35:41;;;;;;;9.45;8.65;;;;;;;3.98;79.34;94436.28;5080402;28;20203;-67
2023/12/06 02:38:09;;;;;;;9.20;8.40;;;;;;;4.00;79.30;94428.59;5097772;28;20591;-68
2023/12/06 02:40:36;;;;;;;9.23;8.43;;;;;;;4.01;78.92;94430.19;5080582;28;20293;-67
2023/12/06 02:43:05;;;;;;;5.07;4.68;;;;;;;4.04;79.17;94428.75;5098032;28;20258;-67
2023/12/06 02:45:32;;;;;;;4.25;3.95;;;;;;;4.12;79.14;94425.19;5080886;28;20212;-67
2023/12/06 02:48:00;;;;;;;4.00;3.70;;;;;;;4.19;78.79;94416.47;5097958;28;20189;-68
2023/12/06 02:50:27;;;;;;;3.80;3.50;;;;;;;4.28;78.50;94418.03;5097848;28;20205;-67
2023/12/06 02:52:54;;;;;;;3.78;3.58;;;;;;;4.38;78.53;94410.59;5080796;28;20228;-67
2023/12/06 02:55:24;;;;;;;3.85;3.63;;;;;;;4.42;78.12;94409.59;5080213;28;20220;-67
2023/12/06 02:57:51;;;;;;;4.20;3.90;;;;;;;4.46;78.11;94407.81;5097735;28;20267;-67
2023/12/06 03:00:20;;;;;;;3.88;3.58;;;;;;;4.48;77.42;94404.75;5097634;28;20558;-68
2023/12/06 03:02:47;;;;;;;3.85;3.55;;;;;;;4.48;77.67;94402.84;5097722;28;20202;-68
2023/12/06 03:05:14;;;;;;;3.97;3.67;;;;;;;4.52;77.08;94402.97;5080389;28;20224;-68
2023/12/06 03:07:41;;;;;;;3.60;3.38;;;;;;;4.52;77.23;94398.31;5097825;28;20188;-68
2023/12/06 03:10:09;;;;;;;3.40;3.20;;;;;;;4.55;77.15;94394.91;5097600;28;20533;-68
2023/12/06 03:12:36;;;;;;;3.58;3.28;;;;;;;4.54;77.00;94390.59;5097531;28;20372;-68
2023/12/06 03:15:03;;;;;;;3.40;3.20;;;;;;;4.55;76.61;94397.66;5063394;28;20264;-68
2023/12/06 03:17:32;;;;;;;3.38;3.15;;;;;;;4.55;76.97;94394.91;5056781;28;20536;-67
2023/12/06 03:20:00;;;;;;;3.42;3.10;;;;;;;4.50;76.98;94383.38;5056471;28;20198;-67
2023/12/06 03:22:27;;;;;;;3.10;2.90;;;;;;;4.50;77.51;94377.91;5057667;28;20247;-67
2023/12/06 03:24:54;;;;;;;3.80;3.50;;;;;;;4.47;77.63;94384.06;5056807;28;20546;-67
2023/12/06 03:27:22;;;;;;;3.47;3.28;;;;;;;4.49;77.62;94385.31;5056571;28;20194;-67
2023/12/06 03:29:49;;;;;;;3.05;2.85;;;;;;;4.43;77.53;94380.38;5057144;28;20178;-67
2023/12/06 03:32:17;;;;;;;3.47;3.20;;;;;;;4.46;77.56;94368.78;5056009;28;20217;-67
2023/12/06 03:34:45;;;;;;;2.80;2.60;;;;;;;4.44;77.65;94371.06;5056194;28;20202;-67
2023/12/06 03:37:15;;;;;;;2.92;2.72;;;;;;;4.32;77.85;94375.31;5056608;28;20232;-68
2023/12/06 03:39:44;;;;;;;3.17;2.97;;;;;;;4.39;78.05;94376.69;5056905;28;20259;-68
2023/12/06 03:42:12;;;;;;;2.78;2.58;;;;;;;4.26;78.13;94384.00;5056774;28;20170;-68
2023/12/06 03:44:39;;;;;;;2.60;2.40;;;;;;;4.29;78.35;94381.44;5056717;28;20283;-67
2023/12/06 03:47:07;;;;;;;3.17;2.97;;;;;;;4.37;78.43;94387.16;5056013;28;20201;-67
2023/12/06 03:49:34;;;;;;;2.92;2.72;;;;;;;4.39;77.98;94385.69;5056362;28;20244;-67
2023/12/06 03:52:03;;;;;;;3.28;3.08;;;;;;;4.41;78.07;94385.38;5055616;28;20276;-67
2023/12/06 03:54:30;;;;;;;3.30;3.00;;;;;;;4.49;77.68;94388.03;5055713;28;20209;-67
2023/12/06 03:56:57;;;;;;;2.58;2.47;;;;;;;4.51;77.49;94391.25;5057052;28;20279;-68
2023/12/06 03:59:24;;;;;;;3.05;2.85;;;;;;;4.54;77.34;94382.41;5055291;28;20206;-68
2023/12/06 04:01:51;;;;;;;2.80;2.70;;;;;;;4.42;77.67;94379.56;5056474;28;20255;-68
2023/12/06 04:04:18;;;;;;;2.90;2.70;;;;;;;4.40;78.06;94376.38;5056362;28;20197;-68
2023/12/06 04:06:46;;;;;;;2.72;2.58;;;;;;;4.38;78.28;94369.66;5055447;28;20209;-68
2023/12/06 04:09:14;;;;;;;2.90;2.70;;;;;;;4.32;78.55;94375.31;5055586;28;20596;-68
2023/12/06 04:11:41;;;;;;;2.97;2.78;;;;;;;4.34;78.47;94367.56;5055906;28;20213;-68
2023/12/06 04:14:08;;;;;;;3.00;2.80;;;;;;;4.30;78.43;94369.38;5064275;28;20263;-68
2023/12/06 04:16:37;;;;;;;3.20;2.90;;;;;;;4.31;78.69;94370.97;5078444;28;20204;-68
2023/12/06 04:19:04;;;;;;;2.60;2.50;;;;;;;4.24;79.00;94372.59;5096408;28;20185;-68
2023/12/06 04:21:31;;;;;;;3.40;3.10;;;;;;;4.24;78.71;94370.69;5078564;28;20188;-68
2023/12/06 04:23:58;;;;;;;3.30;3.10;;;;;;;4.29;79.25;94375.16;5095896;28;20604;-68
2023/12/06 04:26:29;;;;;;;3.47;3.22;;;;;;;4.37;78.56;94373.50;5078432;28;20232;-68
2023/12/06 04:28:56;;;;;;;2.90;2.70;;;;;;;4.40;78.85;94370.13;5078998;28;20188;-68
2023/12/06 04:31:23;;;;;;;3.10;2.90;;;;;;;4.44;78.59;94371.06;5095768;28;20581;-68
2023/12/06 04:33:50;;;;;;;3.20;2.90;;;;;;;4.43;78.81;94374.91;5078410;28;20254;-68
2023/12/06 04:36:17;;;;;;;3.33;3.13;;;;;;;4.39;79.20;94376.69;5095904;28;20585;-67
2023/12/06 04:38:44;;;;;;;2.88;2.67;;;;;;;4.39;79.46;94372.03;5095542;28;20605;-67
2023/12/06 04:41:11;;;;;;;3.33;3.13;;;;;;;4.38;79.45;94370.44;5077602;28;20236;-68
2023/12/06 04:43:40;;;;;;;3.13;2.92;;;;;;;4.35;79.62;94362.91;5095816;28;20196;-67
2023/12/06 04:46:07;;;;;;;4.15;3.85;;;;;;;4.41;79.76;94371.72;5078286;28;20208;-67
2023/12/06 04:48:34;;;;;;;4.85;4.45;;;;;;;4.42;79.25;94370.59;5078489;28;20305;-67
2023/12/06 04:51:01;;;;;;;5.25;4.85;;;;;;;4.35;79.67;94371.91;5095271;28;20562;-68
2023/12/06 04:53:28;;;;;;;15.85;14.55;;;;;;;4.35;79.77;94374.63;5078145;28;20231;-68
2023/12/06 04:55:55;;;;;;;5.90;5.50;;;;;;;4.40;79.59;94370.13;5095622;28;20188;-68
2023/12/06 04:58:22;;;;;;;4.72;4.32;;;;;;;4.40;79.89;94367.41;5077171;28;20240;-68
2023/12/06 05:00:54;;;;;;;9.07;8.25;;;;;;;4.43;80.08;94373.00;5078041;28;20204;-68
2023/12/06 05:03:21;;;;;;;9.68;8.88;;;;;;;4.51;80.32;94374.88;5095302;28;20184;-68
2023/12/06 05:05:48;;;;;;;7.45;6.78;;;;;;;4.59;80.04;94368.53;5078275;28;20208;-68
2023/12/06 05:08:15;;;;;;;6.57;5.97;;;;;;;4.69;80.03;94378.28;5077920;28;20253;-68
2023/12/06 05:10:42;;;;;;;4.40;4.10;;;;;;;4.73;79.87;94370.22;5095607;28;20261;-68
2023/12/06 05:13:11;;;;;;;4.30;4.00;;;;;;;4.74;79.70;94378.06;5094664;28;20457;-69
2023/12/06 05:15:40;;;;;;;3.75;3.45;;;;;;;4.78;79.53;94379.00;5094834;28;20239;-68
2023/12/06 05:18:08;;;;;;;4.03;3.72;;;;;;;4.85;79.40;94377.69;5095364;28;20212;-68
2023/12/06 05:20:37;;;;;;;4.32;4.00;;;;;;;4.87;80.22;94370.75;5094976;28;20185;-68
2023/12/06 05:23:05;;;;;;;3.78;3.55;;;;;;;4.91;80.14;94368.16;5082279;28;20227;-69
2023/12/06 05:25:33;;;;;;;4.50;4.10;;;;;;;4.93;79.89;94374.06;5101304;28;20204;-69
2023/12/06 05:28:00;;;;;;;4.57;4.28;;;;;;;4.96;80.35;94374.19;5102214;28;20180;-70
2023/12/06 05:30:30;;;;;;;4.22;3.92;;;;;;;4.97;79.77;94375.78;5101691;28;20478;-67
2023/12/06 05:33:00;;;;;;;4.20;3.80;;;;;;;4.98;80.06;94374.69;5084050;28;20244;-67
2023/12/06 05:35:30;;;;;;;4.22;3.92;;;;;;;5.02;80.00;94369.34;5102765;28;20268;-69
2023/12/06 05:37:57;;;;;;;4.75;4.35;;;;;;;5.04;80.06;94367.84;5101919;28;20196;-69
2023/12/06 05:40:28;;;;;;;5.30;4.13;;;;;;;5.07;79.89;94361.72;5084469;28;20312;-68
2023/12/06 05:42:55;;;;;;;5.15;4.65;;;;;;;5.08;79.61;94370.72;5101872;28;20192;-68
2023/12/06 05:45:26;;;;;;;5.30;4.80;;;;;;;5.09;79.28;94368.81;5101999;28;20208;-68
2023/12/06 05:47:55;;;;;;;5.05;4.55;;;;;;;5.10;79.90;94370.41;5067714;28;20196;-68
2023/12/06 05:50:23;;;;;;;4.70;4.30;;;;;;;5.11;79.97;94369.25;5101766;28;20189;-68
2023/12/06 05:52:52;;;;;;;4.82;4.38;;;;;;;5.13;80.44;94365.06;5101668;28;20235;-68
2023/12/06 05:55:19;;;;;;;4.78;4.38;;;;;;;5.15;79.91;94364.72;5101657;28;20196;-69
2023/12/06 05:57:46;;;;;;;4.72;4.22;;;;;;;5.16;80.26;94369.88;5084490;28;20234;-69
2023/12/06 06:00:14;;;;;;;4.70;4.00;;;;;;;5.20;79.95;94365.31;5084641;28;20207;-68
2023/12/06 06:02:43;;;;;;;5.13;4.72;;;;;;;5.26;79.72;94368.63;5085049;28;20200;-68
2023/12/06 06:05:10;;;;;;;5.32;4.90;;;;;;;5.25;79.53;94373.31;5101987;28;20184;-70
2023/12/06 06:07:38;;;;;;;4.82;4.43;;;;;;;5.25;80.30;94373.31;5102271;28;20228;-69
2023/12/06 06:10:08;;;;;;;4.75;4.43;;;;;;;5.25;80.64;94369.78;5102079;28;20215;-69
2023/12/06 06:12:36;;;;;;;5.53;5.03;;;;;;;5.24;81.23;94374.44;5101409;28;20234;-67
2023/12/06 06:15:03;;;;;;;5.00;4.60;;;;;;;5.24;81.37;94373.66;5099968;28;20573;-71
2023/12/06 06:17:30;;;;;;;5.30;4.80;;;;;;;5.25;81.81;94373.31;5084679;28;20201;-71
2023/12/06 06:19:57;;;;;;;5.93;5.50;;;;;;;5.26;81.59;94380.38;5084049;28;20257;-72
2023/12/06 06:22:24;;;;;;;6.05;5.55;;;;;;;5.27;81.56;94378.47;5102104;28;20241;-71
2023/12/06 06:24:51;;;;;;;6.18;5.57;;;;;;;5.27;81.66;94378.47;5084811;28;20571;-72
2023/12/06 06:27:20;;;;;;;6.38;5.75;;;;;;;5.26;82.18;94379.56;5084092;28;20240;-72
2023/12/06 06:29:47;;;;;;;6.18;5.40;;;;;;;5.24;82.50;94377.19;5101578;28;20616;-71
2023/12/06 06:32:14;;;;;;;6.32;5.70;;;;;;;5.26;83.42;94382.31;5101552;28;20200;-71
2023/12/06 06:34:42;;;;;;;6.50;5.90;;;;;;;5.26;83.33;94379.56;5098494;28;20250;-72
2023/12/06 06:37:15;;;;;;;5.03;4.53;;;;;;;5.25;83.27;94381.50;5081125;28;20207;-71
2023/12/06 06:39:42;;;;;;;5.90;5.40;;;;;;;5.25;83.08;94378.78;5081493;28;20532;-72
2023/12/06 06:42:09;;;;;;;6.00;5.40;;;;;;;5.26;83.36;94377.63;5098595;28;20212;-72
2023/12/06 06:44:40;;;;;;;6.13;5.53;;;;;;;5.28;83.65;94382.78;5080451;28;20224;-71
2023/12/06 06:47:08;;;;;;;6.13;5.60;;;;;;;5.28;83.43;94382.78;5098906;28;20193;-72
2023/12/06 06:49:39;;;;;;;6.57;5.70;;;;;;;5.31;83.92;94382.13;5097810;28;20288;-71
2023/12/06 06:52:06;;;;;;;6.97;6.18;;;;;;;5.32;84.20;94375.50;5098156;28;20205;-71
2023/12/06 06:54:33;;;;;;;6.35;5.72;;;;;;;5.36;84.52;94375.63;5080770;28;20200;-71
2023/12/06 06:57:03;;;;;;;6.35;5.75;;;;;;;5.39;84.70;94386.69;5098135;28;20572;-72
2023/12/06 06:59:30;;;;;;;7.55;6.90;;;;;;;5.40;84.87;94382.03;5080356;28;20193;-72
2023/12/06 07:01:59;;;;;;;7.72;6.95;;;;;;;5.43;84.65;94376.69;5080234;28;20199;-72
2023/12/06 07:04:26;;;;;;;7.55;6.50;;;;;;;5.47;84.82;94382.28;5098126;28;20223;-73
2023/12/06 07:06:53;;;;;;;6.35;5.68;;;;;;;5.49;84.49;94382.75;5080098;28;20228;-73
2023/12/06 07:09:20;;;;;;;6.00;5.50;;;;;;;5.50;84.14;94378.88;5098256;28;20257;-73
2023/12/06 07:11:49;;;;;;;5.18;4.75;;;;;;;5.50;84.22;94378.88;5097564;28;20220;-72
2023/12/06 07:14:20;;;;;;;5.88;5.03;;;;;;;5.54;84.10;94375.13;5069526;28;20260;-72
2023/12/06 07:16:48;;;;;;;6.15;5.65;;;;;;;5.55;83.83;94373.16;5057327;28;20193;-72
2023/12/06 07:19:17;;;;;;;8.27;7.55;;;;;;;5.55;83.56;94378.66;5057106;28;20240;-71
2023/12/06 07:21:44;;;;;;;7.70;7.10;;;;;;;5.56;83.60;94380.25;5057312;28;20224;-72
2023/12/06 07:24:14;;;;;;;8.88;8.18;;;;;;;5.52;83.66;94382.88;5056499;28;20190;-71
2023/12/06 07:26:42;;;;;;;7.20;6.60;;;;;;;5.52;83.59;94396.56;5057291;28;20196;-71
2023/12/06 07:29:10;;;;;;;7.88;7.18;;;;;;;5.50;83.91;94387.88;5056418;28;20194;-72
2023/12/06 07:31:39;;;;;;;6.35;5.75;;;;;;;5.53;84.06;94391.88;5056605;28;20213;-72
2023/12/06 07:34:08;;;;;;;5.70;5.20;;;;;;;5.60;84.25;94391.34;5039749;28;20189;-72
2023/12/06 07:36:40;;;;;;;6.35;5.75;;;;;;;5.61;84.35;94401.91;5057093;28;20206;-71
2023/12/06 07:39:08;;;;;;;6.30;5.80;;;;;;;5.60;83.99;94399.53;5056126;28;20701;-72
2023/12/06 07:41:36;;;;;;;6.40;5.85;;;;;;;5.60;84.18;94400.34;5056309;28;20229;-69
2023/12/06 07:44:04;;;;;;;6.00;5.50;;;;;;;5.59;83.86;94404.19;5056858;28;20283;-69
2023/12/06 07:46:32;;;;;;;7.43;6.35;;;;;;;5.59;84.05;94395.97;5055362;28;20205;-71
2023/12/06 07:49:00;;;;;;;8.57;7.03;;;;;;;5.61;84.30;94398.38;5056514;28;20259;-72
2023/12/06 07:51:26;;;;;;;7.85;6.85;;;;;;;5.60;84.17;94396.81;5057098;28;20204;-72
2023/12/06 07:53:56;;;;;;;7.38;6.78;;;;;;;5.54;84.18;94396.19;5055902;28;20260;-72
2023/12/06 07:56:23;;;;;;;7.63;6.93;;;;;;;5.55;84.55;94395.88;5055794;28;20208;-72
2023/12/06 07:58:57;;;;;;;7.40;6.80;;;;;;;5.53;84.58;94384.47;5056747;28;20202;-73
2023/12/06 08:01:29;;;;;;;7.50;6.80;;;;;;;5.60;85.05;94383.13;5055744;28;20224;-74
2023/12/06 08:03:57;;;;;;;7.68;7.00;;;;;;;5.63;84.59;94396.94;5056460;28;20205;-74
2023/12/06 08:06:28;;;;;;;8.05;7.43;;;;;;;5.65;84.83;94388.38;5055563;28;20205;-73
2023/12/06 08:09:02;;;;;;;7.63;7.03;;;;;;;5.67;84.50;94388.84;5055685;28;20612;-73
2023/12/06 08:11:29;;;;;;;7.80;7.03;;;;;;;5.71;84.81;94376.88;5055756;28;20212;-73
2023/12/06 08:13:59;;;;;;;7.50;6.88;;;;;;;5.72;84.75;94383.16;5056596;28;20228;-73
2023/12/06 08:16:26;;;;;;;6.88;6.28;;;;;;;5.67;85.43;94386.09;5059583;28;20228;-73
2023/12/06 08:18:54;;;;;;;6.47;5.88;;;;;;;5.58;85.13;94380.72;5076453;28;20212;-70
2023/12/06 08:21:25;;;;;;;6.75;6.10;;;;;;;5.59;85.16;94382.28;5058271;28;20297;-71
2023/12/06 08:23:54;;;;;;;6.32;5.57;;;;;;;5.54;85.70;94385.25;5058254;28;20197;-72
2023/12/06 08:26:23;;;;;;;6.38;5.85;;;;;;;5.53;85.69;94389.94;5076019;28;20181;-71
2023/12/06 08:28:55;;;;;;;6.18;5.57;;;;;;;5.53;85.81;94386.41;5076083;28;20193;-72
2023/12/06 08:31:22;;;;;;;6.53;6.00;;;;;;;5.58;85.34;94383.44;5075840;28;20565;-72
2023/12/06 08:33:49;;;;;;;7.40;6.25;;;;;;;5.59;85.84;94395.19;5058155;28;20670;-72
2023/12/06 08:36:19;;;;;;;6.85;6.25;;;;;;;5.64;85.40;94384.03;5075939;28;20258;-71
2023/12/06 08:38:45;;;;;;;7.32;6.63;;;;;;;5.68;86.00;94393.97;5075485;28;20220;-71
2023/12/06 08:41:13;;;;;;;6.60;5.95;;;;;;;5.71;86.22;94384.28;5076043;28;20216;-72
2023/12/06 08:43:43;;;;;;;7.05;6.50;;;;;;;5.71;85.58;94384.28;5075836;28;20193;-71
2023/12/06 08:46:12;;;;;;;7.28;6.70;;;;;;;5.73;85.58;94382.00;5058425;28;20215;-71
2023/12/06 08:48:42;;;;;;;6.63;6.07;;;;;;;5.76;85.63;94376.66;5075871;28;20190;-72
2023/12/06 08:51:13;;;;;;;6.82;6.32;;;;;;;5.81;85.50;94378.38;5058121;28;20220;-72
2023/12/06 08:53:40;;;;;;;7.57;6.97;;;;;;;5.79;85.64;94378.72;5057793;28;20228;-71
2023/12/06 08:56:09;;;;;;;6.43;5.93;;;;;;;5.76;85.93;94373.13;5076040;28;20227;-71
2023/12/06 08:58:39;;;;;;;6.65;6.05;;;;;;;5.74;86.26;94372.66;5075633;28;20186;-71
2023/12/06 09:01:08;;;;;;;6.55;5.93;;;;;;;5.65;86.44;94370.00;5075277;28;20535;-70
2023/12/06 09:03:35;;;;;;;6.95;6.35;;;;;;;5.70;86.40;94369.81;5075513;28;20223;-71
2023/12/06 09:06:04;;;;;;;7.07;6.47;;;;;;;5.75;86.43;94361.38;5076112;28;20250;-74
2023/12/06 09:08:34;;;;;;;7.03;6.40;;;;;;;5.74;86.57;94362.53;5058804;28;20220;-74
2023/12/06 09:11:03;;;;;;;6.63;6.10;;;;;;;5.77;86.49;94369.22;5075544;28;20231;-74
2023/12/06 09:13:33;;;;;;;6.80;6.28;;;;;;;5.78;86.36;94368.13;5075452;28;20213;-74
2023/12/06 09:16:04;;;;;;;7.28;6.72;;;;;;;5.86;86.13;94366.41;5038624;28;20271;-74
2023/12/06 09:18:36;;;;;;;7.57;6.95;;;;;;;5.85;85.98;94360.16;5055655;28;20247;-73
2023/12/06 09:21:04;;;;;;;7.32;6.68;;;;;;;5.91;86.48;94357.97;5038134;28;20629;-73
2023/12/06 09:23:40;;;;;;;6.65;6.05;;;;;;;5.95;86.12;94354.22;5038270;28;20202;-73
2023/12/06 09:26:09;;;;;;;7.13;6.47;;;;;;;6.01;86.10;94354.81;5055819;28;20227;-74
2023/12/06 09:28:36;;;;;;;6.93;6.32;;;;;;;6.04;85.95;94348.66;5055457;28;20208;-69
2023/12/06 09:31:05;;;;;;;7.15;6.55;;;;;;;6.06;85.84;94345.56;5055374;28;20189;-69
2023/12/06 09:33:35;;;;;;;6.78;6.18;;;;;;;6.10;85.91;94347.31;5054890;28;20206;-67
2023/12/06 09:36:03;;;;;;;7.20;6.60;;;;;;;6.13;85.74;94338.38;5055080;28;20611;-71
2023/12/06 09:38:32;;;;;;;7.10;6.50;;;;;;;6.15;85.56;94343.53;5038594;28;20216;-70
2023/12/06 09:41:01;;;;;;;6.28;5.78;;;;;;;6.18;85.34;94338.19;5053672;28;20200;-69
2023/12/06 09:43:29;;;;;;;6.72;5.85;;;;;;;6.24;85.06;94336.00;5037750;28;20210;-70
2023/12/06 09:46:01;;;;;;;6.50;5.90;;;;;;;6.25;85.16;94329.41;5055264;28;20190;-70
2023/12/06 09:48:27;;;;;;;7.47;6.78;;;;;;;6.22;84.84;94335.56;5054282;28;20213;-69
2023/12/06 09:50:57;;;;;;;6.78;6.22;;;;;;;6.25;85.04;94338.41;5054582;28;20656;-69
2023/12/06 09:53:25;;;;;;;7.63;6.93;;;;;;;6.28;85.04;94328.69;5037618;28;20257;-69
2023/12/06 09:55:54;;;;;;;7.60;6.97;;;;;;;6.29;85.07;94330.31;5054670;28;20575;-70
2023/12/06 09:58:22;;;;;;;6.95;6.25;;;;;;;6.30;85.04;94328.34;5054908;28;20213;-70
2023/12/06 10:00:49;;;;;;;5.82;5.32;;;;;;;6.36;85.08;94324.25;5053738;28;20689;-69
2023/12/06 10:03:16;;;;;;;6.20;5.65;;;;;;;6.35;84.23;94323.44;5054613;28;20232;-69
2023/12/06 10:05:54;;;;;;;6.28;5.70;;;;;;;6.33;83.99;94317.50;5037731;28;20190;-69
2023/12/06 10:08:23;;;;;;;5.07;4.68;;;;;;;6.37;84.45;94321.16;5055448;28;20182;-69
2023/12/06 10:10:50;;;;;;;5.55;5.00;;;;;;;6.38;83.97;94319.22;5040858;28;20339;-69
2023/12/06 10:13:17;;;;;;;5.70;5.30;;;;;;;6.38;83.38;94316.47;5058486;28;20249;-69
2023/12/06 10:15:48;;;;;;;5.25;4.85;;;;;;;6.41;83.88;94308.38;5056529;28;20277;-69
2023/12/06 10:18:15;;;;;;;5.25;4.85;;;;;;;6.45;83.59;94319.44;5058382;28;20194;-69
2023/12/06 10:20:44;;;;;;;6.18;5.68;;;;;;;6.47;83.75;94315.22;5041124;28;20206;-69
2023/12/06 10:23:13;;;;;;;6.40;5.88;;;;;;;6.49;84.03;94307.44;5040358;28;20296;-70
2023/12/06 10:25:50;;;;;;;5.90;5.40;;;;;;;6.50;83.85;94300.03;5058154;28;20512;-69
2023/12/06 10:28:19;;;;;;;5.43;5.03;;;;;;;6.49;84.04;94312.91;5040443;28;20235;-69
2023/12/06 10:30:46;;;;;;;6.60;6.00;;;;;;;6.54;83.74;94311.09;5057980;28;20212;-69
2023/12/06 10:33:13;;;;;;;5.72;5.32;;;;;;;6.51;83.54;94301.63;5058406;28;20267;-70
2023/12/06 10:35:41;;;;;;;7.00;6.30;;;;;;;6.58;84.00;94298.31;5040340;28;20641;-69
2023/12/06 10:38:09;;;;;;;6.35;5.75;;;;;;;6.62;84.00;94299.19;5058129;28;20190;-70
2023/12/06 10:40:36;;;;;;;5.30;4.85;;;;;;;6.60;83.67;94294.06;5057654;28;20506;-71
2023/12/06 10:43:07;;;;;;;6.07;5.57;;;;;;;6.52;83.74;94292.25;5041354;28;20242;-71
2023/12/06 10:45:40;;;;;;;5.88;5.38;;;;;;;6.49;83.87;94290.19;5040721;28;20205;-71
2023/12/06 10:48:08;;;;;;;6.22;5.72;;;;;;;6.50;84.34;94295.34;5040652;28;20212;-71
2023/12/06 10:50:35;;;;;;;6.72;6.20;;;;;;;6.49;84.33;94284.72;5040361;28;20209;-71
2023/12/06 10:53:03;;;;;;;6.30;5.78;;;;;;;6.49;84.34;94290.19;5040618;28;20217;-71
2023/12/06 10:55:31;;;;;;;5.47;4.97;;;;;;;6.45;83.83;94281.88;5041178;28;20213;-70
2023/12/06 10:58:01;;;;;;;6.45;5.35;;;;;;;6.48;83.46;94288.59;5057857;28;20246;-71
2023/12/06 11:00:34;;;;;;;5.50;5.10;;;;;;;6.51;83.54;94285.19;5040825;28;20659;-71
2023/12/06 11:03:02;;;;;;;6.25;4.97;;;;;;;6.54;83.55;94278.22;5024640;28;20190;-71
2023/12/06 11:05:37;;;;;;;4.97;4.20;;;;;;;6.58;83.39;94290.88;5040648;28;20259;-71
2023/12/06 11:08:27;;;;;;;4.95;4.47;;;;;;;6.62;84.06;94283.56;5040642;28;20528;-72
2023/12/06 11:11:07;;;;;;;6.43;5.47;;;;;;;6.65;83.58;94276.59;5028304;28;20206;-71
2023/12/06 11:13:44;;;;;;;6.95;4.90;;;;;;;6.66;83.61;94278.97;5056256;28;20271;-71
2023/12/06 11:16:26;;;;;;;7.32;4.40;;;;;;;6.66;83.43;94287.19;5040093;28;20613;-72
2023/12/06 11:18:57;;;;;;;6.00;4.35;;;;;;;6.65;83.79;94279.34;5040098;28;20219;-72
2023/12/06 11:21:24;;;;;;;4.72;4.10;;;;;;;6.66;83.43;94280.91;5039731;28;20229;-71
2023/12/06 11:23:52;;;;;;;4.47;4.05;;;;;;;6.67;83.11;94280.56;5039991;28;20235;-70
2023/12/06 11:26:19;;;;;;;4.75;4.35;;;;;;;6.70;83.39;94282.63;5039374;28;20637;-70
2023/12/06 11:28:47;;;;;;;8.20;6.38;;;;;;;6.68;83.17;94284.09;5039667;28;20232;-70
2023/12/06 11:31:17;;;;;;;9.57;5.65;;;;;;;6.66;83.56;94276.22;5039550;28;20525;-71
2023/12/06 11:33:58;;;;;;;5.63;4.03;;;;;;;6.69;83.43;94277.50;5040004;28;20226;-71
2023/12/06 11:36:28;;;;;;;8.95;6.85;;;;;;;6.71;83.40;94272.44;5039438;28;20319;-70
2023/12/06 11:38:56;;;;;;;7.15;5.20;;;;;;;6.72;83.34;94274.06;5039238;28;20205;-70
2023/12/06 11:41:23;;;;;;;7.85;4.85;;;;;;;6.71;83.42;94273.25;5039304;28;20693;-70
2023/12/06 11:43:52;;;;;;;7.43;4.95;;;;;;;6.74;83.45;94275.28;5039687;28;20271;-70